Time;durP1;ratioP1;P1;durP2;ratioP2;P2;SDS_P1;SDS_P2;PMS_P1;PMS_P2;Temp;Humidity;BMP_temperature;BMP_pressure;BME280_temperature;BME280_humidity;BME280_pressure;Samples;Min_cycle;Max_cycle;Signal;HPM_P1;HPM_P2
2023/06/04 00:01:09;;;;;;;1999.90;999.90;;;;;;;24.44;31.62;102323.06;5067684;28;20771;-65
2023/06/04 00:03:35;;;;;;;1999.90;999.90;;;;;;;24.50;31.66;102309.41;5066469;28;20029;-65
2023/06/04 00:06:00;;;;;;;1999.90;999.90;;;;;;;24.56;31.52;102313.59;5055777;28;20029;-66
2023/06/04 00:08:26;;;;;;;1999.90;999.90;;;;;;;23.52;33.83;102315.41;5063770;28;20024;-66
2023/06/04 00:10:51;;;;;;;1999.90;999.90;;;;;;;23.71;32.80;102317.28;5057088;28;20126;-66
2023/06/04 00:13:17;;;;;;;1999.90;999.90;;;;;;;23.45;33.13;102324.59;5048442;28;20032;-66
2023/06/04 00:15:42;;;;;;;1999.90;999.90;;;;;;;23.82;32.50;102328.41;5046823;28;20500;-66
2023/06/04 00:18:08;;;;;;;1999.90;999.90;;;;;;;24.25;31.73;102319.47;5051819;28;20447;-66
2023/06/04 00:20:34;;;;;;;1999.90;999.90;;;;;;;24.49;31.57;102310.34;5052309;28;20490;-66
2023/06/04 00:22:59;;;;;;;1999.90;999.90;;;;;;;24.48;31.72;102313.97;5051069;28;20032;-66
2023/06/04 00:25:25;;;;;;;1999.90;999.90;;;;;;;24.34;31.57;102317.25;5060002;28;20028;-66
2023/06/04 00:27:51;;;;;;;1999.90;999.90;;;;;;;24.02;32.22;102313.34;5063402;28;20405;-66
2023/06/04 00:30:17;;;;;;;1999.90;999.90;;;;;;;24.03;32.13;102313.28;5066914;28;20153;-66
2023/06/04 00:32:42;;;;;;;1999.90;999.90;;;;;;;24.35;31.65;102313.66;5067864;28;20507;-66
2023/06/04 00:35:09;;;;;;;1999.90;999.90;;;;;;;24.19;31.69;102316.16;5049452;28;20030;-66
2023/06/04 00:37:38;;;;;;;1999.90;999.90;;;;;;;24.15;31.88;102319.91;5050265;28;20079;-66
2023/06/04 00:40:05;;;;;;;1999.90;999.90;;;;;;;24.22;31.69;102321.34;5052530;28;20036;-66
2023/06/04 00:42:30;;;;;;;1999.90;999.90;;;;;;;23.45;32.95;102319.25;5069991;28;20028;-66
2023/06/04 00:44:57;;;;;;;1999.90;999.90;;;;;;;23.46;32.73;102315.63;5069095;28;20016;-66
2023/06/04 00:47:23;;;;;;;1999.90;999.90;;;;;;;23.26;33.32;102323.59;5065080;28;20024;-66
2023/06/04 00:49:48;;;;;;;1999.90;999.90;;;;;;;23.53;32.77;102317.16;5055561;28;20047;-66
2023/06/04 00:52:15;;;;;;;1999.90;999.90;;;;;;;23.37;33.48;102319.56;5050003;28;20396;-65
2023/06/04 00:54:41;;;;;;;1999.90;999.90;;;;;;;23.51;33.21;102319.00;5049846;28;20462;-66
2023/06/04 00:57:08;;;;;;;1999.90;999.90;;;;;;;23.75;33.05;102324.25;5065681;28;20070;-66
2023/06/04 00:59:36;;;;;;;1999.90;999.90;;;;;;;22.75;34.12;102329.09;5070970;28;20052;-66
2023/06/04 01:02:13;;;;;;;1999.90;999.90;;;;;;;23.30;33.13;102323.41;5057142;28;20025;-66
2023/06/04 01:04:44;;;;;;;1999.90;999.90;;;;;;;23.47;33.03;102321.88;5051207;28;20559;-65
2023/06/04 01:07:13;;;;;;;1999.90;999.90;;;;;;;23.91;32.43;102320.97;5051023;28;20048;-65
2023/06/04 01:09:39;;;;;;;1999.90;999.90;;;;;;;23.77;32.95;102324.16;5049481;28;20021;-65
2023/06/04 01:12:05;;;;;;;1999.90;999.90;;;;;;;23.60;32.65;102322.22;5052564;28;20370;-65
2023/06/04 01:14:33;;;;;;;1999.90;999.90;;;;;;;23.72;32.72;102327.91;5050725;28;20025;-66
2023/06/04 01:17:03;;;;;;;1999.90;999.90;;;;;;;23.72;32.66;102335.06;5066235;28;20046;-66
2023/06/04 01:19:54;;;;;;;1999.90;999.90;;;;;;;23.26;32.99;102320.91;5071373;28;20387;-65
2023/06/04 01:22:37;;;;;;;1999.90;999.90;;;;;;;22.31;34.76;102334.19;5066171;28;20048;-66
2023/06/04 01:25:09;;;;;;;1999.90;999.90;;;;;;;23.07;33.63;102329.63;5068710;28;20039;-66
2023/06/04 01:27:35;;;;;;;1999.90;999.90;;;;;;;23.83;32.52;102330.13;5067446;28;20064;-65
2023/06/04 01:30:01;;;;;;;1999.90;999.90;;;;;;;23.14;33.54;102327.63;5068247;28;20098;-66
2023/06/04 01:32:27;;;;;;;1999.90;999.90;;;;;;;22.81;34.07;102333.31;5070093;28;20499;-66
2023/06/04 01:34:52;;;;;;;1999.90;999.90;;;;;;;23.48;32.59;102327.13;5070805;28;20025;-65
2023/06/04 01:37:18;;;;;;;1999.90;999.90;;;;;;;23.38;33.20;102328.44;5071938;28;20465;-66
2023/06/04 01:39:43;;;;;;;1999.90;999.90;;;;;;;23.84;32.17;102326.53;5053000;28;20033;-66
2023/06/04 01:42:10;;;;;;;1999.90;999.90;;;;;;;23.53;32.94;102322.50;5059910;28;20090;-65
2023/06/04 01:44:35;;;;;;;1999.90;999.90;;;;;;;23.76;32.07;102323.31;5068963;28;20476;-66
2023/06/04 01:47:00;;;;;;;1999.90;999.90;;;;;;;23.49;32.95;102323.53;5065840;28;20090;-65
2023/06/04 01:49:27;;;;;;;1999.90;999.90;;;;;;;23.16;32.83;102318.66;5053474;28;20480;-65
2023/06/04 01:51:52;;;;;;;1999.90;999.90;;;;;;;22.55;33.75;102318.31;5050455;28;20388;-65
2023/06/04 01:54:17;;;;;;;1999.90;999.90;;;;;;;22.91;33.56;102325.81;5049646;28;20112;-65
2023/06/04 01:56:43;;;;;;;1999.90;999.90;;;;;;;22.98;33.89;102320.19;5050374;28;20552;-66
2023/06/04 01:59:11;;;;;;;1999.90;999.90;;;;;;;22.81;33.53;102318.19;5051161;28;20057;-66
2023/06/04 02:01:37;;;;;;;1999.90;999.90;;;;;;;22.94;34.02;102312.38;5051022;28;20029;-65
2023/06/04 02:04:03;;;;;;;1999.90;999.90;;;;;;;22.77;34.06;102316.56;5050331;28;20370;-67
2023/06/04 02:06:29;;;;;;;1999.90;999.90;;;;;;;23.22;33.23;102312.19;5066929;28;20060;-67
2023/06/04 02:08:55;;;;;;;1999.90;999.90;;;;;;;23.59;32.45;102307.13;5068728;28;20581;-68
2023/06/04 02:11:20;;;;;;;1999.90;999.90;;;;;;;23.07;33.58;102313.63;5070940;28;20029;-67
2023/06/04 02:13:46;;;;;;;1999.90;999.90;;;;;;;23.07;33.02;102308.31;5063844;28;20025;-67
2023/06/04 02:16:11;;;;;;;1999.90;999.90;;;;;;;23.18;32.83;102311.44;5048633;28;20033;-67
2023/06/04 02:18:37;;;;;;;1999.90;999.90;;;;;;;23.14;32.52;102309.81;5049549;28;20039;-67
2023/06/04 02:21:02;;;;;;;1999.90;999.90;;;;;;;22.77;33.65;102313.88;5056227;28;20050;-66
2023/06/04 02:23:28;;;;;;;1999.90;999.90;;;;;;;22.49;34.08;102306.94;5067136;28;20119;-67
2023/06/04 02:25:53;;;;;;;1999.90;999.90;;;;;;;23.24;32.88;102309.47;5050209;28;20029;-67
2023/06/04 02:28:19;;;;;;;1999.90;999.90;;;;;;;22.95;33.31;102317.63;5056563;28;20032;-67
2023/06/04 02:30:45;;;;;;;1999.90;999.90;;;;;;;23.14;32.55;102315.16;5053829;28;20089;-67
2023/06/04 02:33:11;;;;;;;1999.90;999.90;;;;;;;22.14;34.02;102314.38;5054499;28;20039;-67
2023/06/04 02:35:37;;;;;;;1999.90;999.90;;;;;;;22.62;33.59;102317.13;5070182;28;20032;-67
2023/06/04 02:38:02;;;;;;;1999.90;999.90;;;;;;;22.26;33.72;102320.22;5055475;28;20040;-68
2023/06/04 02:40:28;;;;;;;1999.90;999.90;;;;;;;22.18;33.47;102313.34;5068599;28;20369;-67
2023/06/04 02:42:55;;;;;;;1999.90;999.90;;;;;;;22.51;33.73;102320.19;5047879;28;20032;-67
2023/06/04 02:45:21;;;;;;;1999.90;999.90;;;;;;;22.94;32.78;102317.69;5050222;28;20144;-65
2023/06/04 02:47:46;;;;;;;1999.90;999.90;;;;;;;23.12;32.58;102321.44;5069181;28;20111;-66
2023/06/04 02:50:13;;;;;;;1999.90;999.90;;;;;;;22.50;33.50;102326.44;5055562;28;20060;-65
2023/06/04 02:52:39;;;;;;;1999.90;999.90;;;;;;;22.83;33.08;102321.66;5047482;28;20029;-65
2023/06/04 02:55:06;;;;;;;1999.90;999.90;;;;;;;22.71;33.07;102316.81;5070349;28;20059;-65
2023/06/04 02:57:32;;;;;;;1999.90;999.90;;;;;;;22.78;32.86;102322.75;5069095;28;20066;-65
2023/06/04 02:59:57;;;;;;;1999.90;999.90;;;;;;;22.97;32.76;102315.81;5068722;28;20056;-65
2023/06/04 03:02:23;;;;;;;1999.90;999.90;;;;;;;21.89;33.31;102313.50;5058154;28;20448;-66
2023/06/04 03:04:50;;;;;;;1999.90;999.90;;;;;;;22.50;33.23;102324.66;5059497;28;20436;-66
2023/06/04 03:07:20;;;;;;;1999.90;999.90;;;;;;;22.85;32.70;102314.47;5058683;28;20032;-65
2023/06/04 03:09:47;;;;;;;1999.90;999.90;;;;;;;21.94;33.69;102309.75;5061748;28;20119;-65
2023/06/04 03:12:12;;;;;;;1999.90;999.90;;;;;;;21.95;33.71;102314.13;5055561;28;20029;-65
2023/06/04 03:14:38;;;;;;;1999.90;999.90;;;;;;;22.31;33.26;102316.44;5049493;28;20025;-65
2023/06/04 03:17:10;;;;;;;1999.90;999.90;;;;;;;22.60;32.75;102311.88;5048792;28;20086;-66
2023/06/04 03:19:41;;;;;;;1999.90;999.90;;;;;;;22.23;33.18;102314.97;5065156;28;20090;-66
2023/06/04 03:22:08;;;;;;;1999.90;999.90;;;;;;;21.58;34.05;102319.84;5057342;28;20017;-66
2023/06/04 03:24:39;;;;;;;1999.90;999.90;;;;;;;22.09;33.28;102313.69;5048007;28;20059;-66
2023/06/04 03:27:07;;;;;;;1999.90;999.90;;;;;;;22.24;33.41;102316.72;5049239;28;20071;-65
2023/06/04 03:29:32;;;;;;;1999.90;999.90;;;;;;;22.41;33.16;102322.34;5051921;28;20078;-66
2023/06/04 03:31:58;;;;;;;1999.90;999.90;;;;;;;22.24;32.96;102312.25;5063884;28;20028;-65
2023/06/04 03:34:24;;;;;;;1999.90;999.90;;;;;;;22.17;33.33;102306.28;5053110;28;20431;-66
2023/06/04 03:36:55;;;;;;;1999.90;999.90;;;;;;;22.57;32.69;102313.78;5069061;28;20029;-65
2023/06/04 03:39:21;;;;;;;1999.90;999.90;;;;;;;20.94;35.00;102321.81;5068769;28;20031;-66
2023/06/04 03:41:47;;;;;;;1999.90;999.90;;;;;;;22.00;33.35;102308.69;5060062;28;20025;-66
2023/06/04 03:44:14;;;;;;;1999.90;999.90;;;;;;;22.10;33.24;102310.06;5059901;28;20039;-66
2023/06/04 03:46:39;;;;;;;1999.90;999.90;;;;;;;22.31;32.96;102315.56;5069299;28;20041;-66
2023/06/04 03:49:05;;;;;;;1999.90;999.90;;;;;;;22.26;33.30;102312.22;5067834;28;20362;-66
2023/06/04 03:51:30;;;;;;;1999.90;999.90;;;;;;;22.48;33.02;102305.19;5063657;28;20024;-66
2023/06/04 03:53:58;;;;;;;1999.90;999.90;;;;;;;22.31;32.90;102318.22;5068263;28;20024;-66
2023/06/04 03:56:24;;;;;;;1999.90;999.90;;;;;;;22.22;33.15;102319.44;5069145;28;20029;-65
2023/06/04 03:58:50;;;;;;;1999.90;999.90;;;;;;;21.55;33.92;102322.63;5059089;28;20435;-66
2023/06/04 04:01:16;;;;;;;1999.90;999.90;;;;;;;22.12;32.94;102318.91;5059937;28;20029;-66
2023/06/04 04:03:42;;;;;;;1999.90;999.90;;;;;;;22.44;32.65;102308.03;5063648;28;20025;-65
2023/06/04 04:06:10;;;;;;;1999.90;999.90;;;;;;;21.79;34.16;102327.13;5047435;28;20082;-66
2023/06/04 04:08:37;;;;;;;1999.90;999.90;;;;;;;21.66;34.34;102325.78;5046929;28;20029;-66
2023/06/04 04:11:02;;;;;;;1999.90;999.90;;;;;;;21.28;34.61;102330.50;5049384;28;20017;-66
2023/06/04 04:13:28;;;;;;;1999.90;999.90;;;;;;;21.86;33.70;102323.31;5067038;28;20554;-65
2023/06/04 04:15:53;;;;;;;1999.90;999.90;;;;;;;22.32;33.59;102317.31;5056363;28;20043;-66
2023/06/04 04:18:22;;;;;;;1999.90;999.90;;;;;;;22.66;32.87;102321.44;5069395;28;20392;-66
2023/06/04 04:20:48;;;;;;;1999.90;999.90;;;;;;;22.51;32.75;102315.72;5054419;28;20060;-65
2023/06/04 04:23:14;;;;;;;1999.90;999.90;;;;;;;21.99;33.55;102317.56;5047022;28;20106;-66
2023/06/04 04:25:41;;;;;;;1999.90;999.90;;;;;;;22.45;32.58;102313.31;5051302;28;20068;-65
2023/06/04 04:28:06;;;;;;;1999.90;999.90;;;;;;;22.44;32.77;102316.88;5069282;28;20030;-66
2023/06/04 04:30:35;;;;;;;1999.90;999.90;;;;;;;22.18;32.85;102321.31;5065923;28;20021;-66
2023/06/04 04:33:02;;;;;;;1999.90;999.90;;;;;;;21.74;33.73;102323.75;5048989;28;20511;-66
2023/06/04 04:35:28;;;;;;;1999.90;999.90;;;;;;;22.59;32.54;102319.94;5047137;28;20155;-66
2023/06/04 04:37:54;;;;;;;1999.90;999.90;;;;;;;22.25;32.84;102318.47;5063242;28;20508;-65
2023/06/04 04:40:20;;;;;;;1999.90;999.90;;;;;;;22.33;33.07;102327.03;5050712;28;20028;-65
2023/06/04 04:42:46;;;;;;;1999.90;999.90;;;;;;;23.10;32.29;102313.50;5052229;28;20374;-66
2023/06/04 04:45:12;;;;;;;1999.90;999.90;;;;;;;24.10;30.46;102316.56;5063127;28;20158;-65
2023/06/04 04:47:38;;;;;;;1999.90;999.90;;;;;;;23.57;30.97;102317.00;5064846;28;20033;-66
2023/06/04 04:50:05;;;;;;;1999.90;999.90;;;;;;;24.92;28.81;102322.69;5048809;28;20100;-65
2023/06/04 04:52:30;;;;;;;1999.90;999.90;;;;;;;26.29;27.14;102307.00;5046362;28;20032;-66
2023/06/04 04:54:57;;;;;;;1999.90;999.90;;;;;;;26.67;26.21;102304.03;5050597;28;20378;-66
2023/06/04 04:57:23;;;;;;;1999.90;999.90;;;;;;;26.52;27.03;102305.75;5067632;28;20021;-66
2023/06/04 04:59:48;;;;;;;1999.90;999.90;;;;;;;26.92;26.74;102304.41;5049244;28;20049;-66
2023/06/04 05:02:15;;;;;;;1999.90;999.90;;;;;;;25.69;27.35;102305.56;5067923;28;20032;-65
2023/06/04 05:04:40;;;;;;;1999.90;999.90;;;;;;;25.56;27.82;102316.91;5070642;28;20578;-66
2023/06/04 05:07:06;;;;;;;1999.90;999.90;;;;;;;24.72;28.98;102314.66;5072513;28;20106;-66
2023/06/04 05:09:31;;;;;;;1999.90;999.90;;;;;;;23.55;30.25;102323.28;5061254;28;20104;-65
2023/06/04 05:11:57;;;;;;;1999.90;999.90;;;;;;;24.99;28.75;102316.09;5069733;28;20013;-65
2023/06/04 05:14:22;;;;;;;1999.90;999.90;;;;;;;24.41;29.54;102320.53;5072087;28;20065;-65
2023/06/04 05:16:48;;;;;;;1999.90;999.90;;;;;;;23.23;31.45;102318.38;5062996;28;20919;-65
2023/06/04 05:19:15;;;;;;;1999.90;999.90;;;;;;;22.88;31.73;102324.16;5056846;28;20025;-66
2023/06/04 05:21:41;;;;;;;1999.90;999.90;;;;;;;22.93;32.16;102323.94;5069343;28;20028;-65
2023/06/04 05:24:07;;;;;;;1999.90;999.90;;;;;;;23.51;31.17;102329.66;5066009;28;20044;-66
2023/06/04 05:26:33;;;;;;;1999.90;999.90;;;;;;;22.98;32.17;102329.97;5051441;28;20040;-65
2023/06/04 05:28:59;;;;;;;1999.90;999.90;;;;;;;22.94;32.04;102328.38;5059561;28;20503;-65
2023/06/04 05:31:26;;;;;;;1999.90;999.90;;;;;;;22.88;32.49;102330.34;5070315;28;20484;-66
2023/06/04 05:33:52;;;;;;;1999.90;999.90;;;;;;;23.47;31.56;102328.06;5069159;28;20381;-66
2023/06/04 05:36:17;;;;;;;1999.90;999.90;;;;;;;23.35;31.72;102328.56;5071915;28;20021;-66
2023/06/04 05:38:42;;;;;;;1999.90;999.90;;;;;;;23.87;31.18;102331.72;5068032;28;20481;-65
2023/06/04 05:41:08;;;;;;;1999.90;999.90;;;;;;;23.79;31.07;102333.84;5066400;28;20027;-66
2023/06/04 05:43:33;;;;;;;1999.90;999.90;;;;;;;22.20;33.13;102331.91;5071853;28;20032;-65
2023/06/04 05:45:59;;;;;;;1999.90;999.90;;;;;;;23.39;32.12;102335.50;5069600;28;20025;-65
2023/06/04 05:48:25;;;;;;;1999.90;999.90;;;;;;;22.63;32.98;102329.53;5069806;28;20024;-66
2023/06/04 05:50:50;;;;;;;1999.90;999.90;;;;;;;23.21;31.92;102321.97;5068457;28;20512;-65
2023/06/04 05:53:16;;;;;;;1999.90;999.90;;;;;;;23.95;31.72;102339.44;5068045;28;20511;-65
2023/06/04 05:55:41;;;;;;;1999.90;999.90;;;;;;;24.27;31.08;102336.31;5070263;28;20048;-66
2023/06/04 05:58:07;;;;;;;1999.90;999.90;;;;;;;23.43;31.99;102342.47;5070001;28;20545;-66
2023/06/04 06:00:32;;;;;;;1999.90;999.90;;;;;;;23.88;31.67;102346.00;5069916;28;20044;-65
2023/06/04 06:02:58;;;;;;;1999.90;999.90;;;;;;;24.54;30.92;102331.53;5066842;28;20032;-65
2023/06/04 06:05:23;;;;;;;1999.90;999.90;;;;;;;24.24;31.20;102337.31;5068483;28;20676;-65
2023/06/04 06:07:49;;;;;;;1999.90;999.90;;;;;;;23.75;32.01;102348.25;5060823;28;20033;-65
2023/06/04 06:10:15;;;;;;;1999.90;999.90;;;;;;;24.24;31.23;102336.47;5050646;28;20032;-65
2023/06/04 06:12:41;;;;;;;1999.90;999.90;;;;;;;23.28;32.24;102343.94;5049685;28;20039;-65
2023/06/04 06:15:06;;;;;;;1999.90;999.90;;;;;;;24.64;31.13;102332.00;5049470;28;20029;-66
2023/06/04 06:17:32;;;;;;;1999.90;999.90;;;;;;;24.58;30.69;102342.94;5065110;28;20021;-65
2023/06/04 06:19:58;;;;;;;1999.90;999.90;;;;;;;26.66;28.27;102331.81;5050288;28;20032;-65
2023/06/04 06:22:24;;;;;;;1999.90;999.90;;;;;;;28.66;25.75;102332.69;5050134;28;20044;-66
2023/06/04 06:24:49;;;;;;;1999.90;999.90;;;;;;;30.31;23.46;102331.66;5050655;28;20492;-65
2023/06/04 06:27:16;;;;;;;1999.90;999.90;;;;;;;30.48;22.96;102335.84;5061030;28;20463;-65
2023/06/04 06:29:42;;;;;;;1999.90;999.90;;;;;;;32.13;21.44;102341.63;5057127;28;20140;-65
2023/06/04 06:32:08;;;;;;;1999.90;999.90;;;;;;;32.17;21.25;102343.16;5049043;28;20066;-65
2023/06/04 06:34:34;;;;;;;1999.90;999.90;;;;;;;32.24;20.72;102338.97;5060046;28;20060;-65
2023/06/04 06:37:00;;;;;;;1999.90;999.90;;;;;;;33.34;20.17;102348.25;5065832;28;20025;-65
2023/06/04 06:39:25;;;;;;;1999.90;999.90;;;;;;;33.94;19.50;102341.31;5049006;28;20039;-66
2023/06/04 06:41:51;;;;;;;1999.90;999.90;;;;;;;34.11;19.61;102347.09;5059761;28;20116;-65
2023/06/04 06:44:17;;;;;;;1999.90;999.90;;;;;;;35.61;17.97;102348.13;5053742;28;20029;-66
2023/06/04 06:46:42;;;;;;;1999.90;999.90;;;;;;;34.96;18.67;102345.91;5048316;28;20024;-65
2023/06/04 06:49:08;;;;;;;1999.90;999.90;;;;;;;34.16;19.02;102358.41;5065763;28;20464;-66
2023/06/04 06:51:33;;;;;;;1999.90;999.90;;;;;;;33.42;19.21;102364.72;5060184;28;20101;-66
2023/06/04 06:53:59;;;;;;;1999.90;999.90;;;;;;;34.04;19.07;102362.22;5064339;28;20090;-66
2023/06/04 06:56:24;;;;;;;1999.90;999.90;;;;;;;34.26;19.51;102366.59;5048748;28;20033;-66
2023/06/04 06:58:51;;;;;;;1999.90;999.90;;;;;;;34.93;17.57;102364.34;5048741;28;20100;-66
2023/06/04 07:01:16;;;;;;;1999.90;999.90;;;;;;;35.08;18.92;102356.66;5055071;28;20054;-65
2023/06/04 07:03:41;;;;;;;1999.90;999.90;;;;;;;36.47;16.55;102360.84;5067909;28;20032;-66
2023/06/04 07:06:07;;;;;;;1999.90;999.90;;;;;;;36.28;17.27;102360.88;5066370;28;20444;-66
2023/06/04 07:08:33;;;;;;;1999.90;999.90;;;;;;;36.31;17.38;102369.66;5059688;28;20037;-66
2023/06/04 07:10:59;;;;;;;1999.90;999.90;;;;;;;36.86;16.49;102367.13;5058465;28;20028;-66
2023/06/04 07:13:25;;;;;;;1999.90;999.90;;;;;;;36.24;16.73;102371.19;5065714;28;20438;-66
2023/06/04 07:15:50;;;;;;;1999.90;999.90;;;;;;;36.26;17.27;102368.31;5074887;28;20032;-66
2023/06/04 07:18:16;;;;;;;1999.90;999.90;;;;;;;37.46;15.88;102372.03;5069644;28;20024;-66
2023/06/04 07:20:41;;;;;;;1999.90;999.90;;;;;;;37.28;15.12;102364.69;5089398;28;20395;-66
2023/06/04 07:23:07;;;;;;;1999.90;999.90;;;;;;;37.06;16.22;102365.97;5083389;28;20078;-66
2023/06/04 07:25:33;;;;;;;1999.90;999.90;;;;;;;37.68;16.38;102370.66;5087745;28;20031;-65
2023/06/04 07:27:58;;;;;;;1999.90;999.90;;;;;;;37.19;16.06;102371.03;5061697;28;20384;-66
2023/06/04 07:30:26;;;;;;;1999.90;999.90;;;;;;;36.37;16.94;102368.19;5060735;28;20451;-66
2023/06/04 07:32:52;;;;;;;1999.90;999.90;;;;;;;35.90;16.65;102374.47;5061026;28;20040;-66
2023/06/04 07:35:18;;;;;;;1999.90;999.90;;;;;;;37.26;16.30;102365.81;5061846;28;20155;-67
2023/06/04 07:37:48;;;;;;;1999.90;999.90;;;;;;;36.41;16.85;102371.47;5069262;28;20449;-65
2023/06/04 07:40:13;;;;;;;1999.90;999.90;;;;;;;38.68;14.86;102368.41;5048504;28;20116;-66
2023/06/04 07:42:40;;;;;;;1999.90;999.90;;;;;;;38.26;15.54;102369.22;5060457;28;20021;-66
2023/06/04 07:45:06;;;;;;;1999.90;999.90;;;;;;;37.94;15.40;102375.34;5068133;28;20404;-66
2023/06/04 07:47:31;;;;;;;1999.90;999.90;;;;;;;37.66;15.72;102368.09;5069005;28;20098;-66
2023/06/04 07:49:57;;;;;;;1999.90;999.90;;;;;;;37.64;15.19;102367.38;5060798;28;20534;-65
2023/06/04 07:52:22;;;;;;;1999.90;999.90;;;;;;;36.98;15.65;102374.06;5065291;28;20461;-65
2023/06/04 07:54:48;;;;;;;1999.90;999.90;;;;;;;37.21;15.76;102358.13;5068130;28;20020;-66
2023/06/04 07:57:13;;;;;;;1999.90;999.90;;;;;;;36.97;15.31;102365.06;5056924;28;20123;-65
2023/06/04 07:59:38;;;;;;;1999.90;999.90;;;;;;;36.42;15.79;102373.19;5059223;28;20054;-65
2023/06/04 08:02:04;;;;;;;1999.90;999.90;;;;;;;37.08;17.26;102374.00;5068081;28;20035;-66
2023/06/04 08:04:30;;;;;;;1999.90;999.90;;;;;;;36.86;16.00;102370.69;5067553;28;20024;-66
2023/06/04 08:06:55;;;;;;;1999.90;999.90;;;;;;;35.92;16.07;102368.88;5067578;28;20032;-65
2023/06/04 08:09:21;;;;;;;1999.90;999.90;;;;;;;38.21;14.89;102376.16;5064876;28;20029;-66
2023/06/04 08:11:46;;;;;;;1999.90;999.90;;;;;;;38.40;14.00;102372.38;5053633;28;20029;-66
2023/06/04 08:14:12;;;;;;;1999.90;999.90;;;;;;;38.61;14.49;102375.56;5048734;28;20025;-65
2023/06/04 08:16:38;;;;;;;1999.90;999.90;;;;;;;37.40;15.54;102372.63;5046734;28;20105;-66
2023/06/04 08:19:04;;;;;;;1999.90;999.90;;;;;;;37.43;14.68;102372.34;5047687;28;20029;-66
2023/06/04 08:21:29;;;;;;;1999.90;999.90;;;;;;;37.01;15.35;102369.19;5049093;28;20040;-66
2023/06/04 08:23:55;;;;;;;1999.90;999.90;;;;;;;36.79;15.22;102366.84;5051003;28;20032;-66
2023/06/04 08:26:21;;;;;;;1999.90;999.90;;;;;;;36.08;16.00;102371.84;5066913;28;20408;-66
2023/06/04 08:28:50;;;;;;;1999.90;999.90;;;;;;;37.66;15.35;102373.56;5066401;28;20377;-66
2023/06/04 08:31:16;;;;;;;1999.90;999.90;;;;;;;36.05;16.41;102371.25;5069089;28;20021;-65
2023/06/04 08:33:42;;;;;;;1999.90;999.90;;;;;;;36.79;15.22;102370.41;5068662;28;20552;-65
2023/06/04 08:36:08;;;;;;;1999.90;999.90;;;;;;;36.63;15.19;102376.53;5067552;28;20078;-66
2023/06/04 08:38:33;;;;;;;1999.90;999.90;;;;;;;36.29;15.58;102371.63;5071491;28;20032;-66
2023/06/04 08:41:15;;;;;;;1999.90;999.90;;;;;;;38.34;15.39;102382.06;5055273;28;20405;-66
2023/06/04 08:43:43;;;;;;;1999.90;999.90;;;;;;;39.08;14.57;102373.34;5051711;28;20037;-66
2023/06/04 08:46:09;;;;;;;1999.90;999.90;;;;;;;39.16;15.45;102373.38;5052544;28;20031;-65
2023/06/04 08:48:38;;;;;;;1999.90;999.90;;;;;;;39.36;14.65;102377.50;5067791;28;20029;-66
2023/06/04 08:51:09;;;;;;;1999.90;999.90;;;;;;;39.57;14.11;102380.72;5071576;28;20024;-66
2023/06/04 08:53:36;;;;;;;1999.90;999.90;;;;;;;39.05;14.63;102384.56;5070807;28;20029;-66
2023/06/04 08:56:02;;;;;;;1999.90;999.90;;;;;;;40.12;15.09;102381.91;5054794;28;20048;-66
2023/06/04 08:58:32;;;;;;;1999.90;999.90;;;;;;;38.94;15.97;102385.75;5071755;28;20495;-66
2023/06/04 09:01:00;;;;;;;1999.90;999.90;;;;;;;39.13;15.61;102387.31;5070693;28;20036;-66
2023/06/04 09:03:26;;;;;;;1999.90;999.90;;;;;;;39.90;14.58;102388.94;5069459;28;20040;-65
2023/06/04 09:05:52;;;;;;;1999.90;999.90;;;;;;;38.78;15.70;102394.75;5069780;28;20032;-66
2023/06/04 09:08:19;;;;;;;1999.90;999.90;;;;;;;39.48;14.76;102379.88;5070973;28;20032;-66
2023/06/04 09:10:51;;;;;;;1999.90;999.90;;;;;;;38.95;15.87;102382.88;5056957;28;20029;-65
2023/06/04 09:13:18;;;;;;;1999.90;999.90;;;;;;;40.86;13.88;102390.72;5068099;28;20035;-66
2023/06/04 09:15:44;;;;;;;1999.90;999.90;;;;;;;38.91;15.36;102392.41;5070639;28;20032;-66
2023/06/04 09:18:11;;;;;;;1999.90;999.90;;;;;;;36.24;17.75;102387.53;5071424;28;20021;-66
2023/06/04 09:20:36;;;;;;;1999.90;999.90;;;;;;;37.13;17.23;102390.75;5071558;28;20499;-65
2023/06/04 09:23:12;;;;;;;1999.90;999.90;;;;;;;37.45;16.72;102381.22;5072046;28;20025;-66
2023/06/04 09:25:42;;;;;;;1999.90;999.90;;;;;;;34.70;18.98;102385.41;5068735;28;20559;-65
2023/06/04 09:28:07;;;;;;;1999.90;999.90;;;;;;;35.42;18.87;102380.72;5051992;28;20025;-66
2023/06/04 09:30:33;;;;;;;1999.90;999.90;;;;;;;36.41;17.70;102385.06;5050354;28;20135;-66
2023/06/04 09:33:08;;;;;;;1999.90;999.90;;;;;;;38.47;16.95;102392.53;5050849;28;20075;-66
2023/06/04 09:35:35;;;;;;;1999.90;999.90;;;;;;;38.69;15.77;102392.00;5051757;28;20028;-66
2023/06/04 09:38:00;;;;;;;1999.90;999.90;;;;;;;39.86;15.42;102386.56;5061833;28;20029;-66
2023/06/04 09:40:37;;;;;;;1999.90;999.90;;;;;;;38.61;15.27;102405.59;5069595;28;20393;-66
2023/06/04 09:43:02;;;;;;;1999.90;999.90;;;;;;;38.43;16.20;102402.06;5071757;28;20046;-66
2023/06/04 09:45:28;;;;;;;1999.90;999.90;;;;;;;38.61;15.33;102405.59;5071604;28;20552;-66
2023/06/04 09:47:54;;;;;;;1999.90;999.90;;;;;;;38.90;15.97;102398.03;5054097;28;20033;-65
2023/06/04 09:50:33;;;;;;;1999.90;999.90;;;;;;;38.73;16.04;102397.13;5053214;28;20108;-66
2023/06/04 09:52:59;;;;;;;1999.90;999.90;;;;;;;38.97;14.96;102389.00;5070420;28;20035;-66
2023/06/04 09:55:25;;;;;;;1999.90;999.90;;;;;;;37.89;16.40;102392.16;5071396;28;20017;-66
2023/06/04 09:57:52;;;;;;;1999.90;999.90;;;;;;;39.46;15.07;102381.91;5056990;28;20044;-66
2023/06/04 10:00:22;;;;;;;1999.90;999.90;;;;;;;38.82;15.68;102402.44;5067010;28;20057;-66
2023/06/04 10:02:49;;;;;;;1999.90;999.90;;;;;;;37.95;15.92;102391.53;5070981;28;20029;-65
2023/06/04 10:05:15;;;;;;;1999.90;999.90;;;;;;;38.63;15.90;102408.16;5070144;28;20028;-66
2023/06/04 10:07:45;;;;;;;1999.90;999.90;;;;;;;38.86;15.85;102397.53;5069925;28;20062;-65
2023/06/04 10:10:15;;;;;;;1999.90;999.90;;;;;;;36.48;15.83;102397.94;5056138;28;20095;-66
2023/06/04 10:12:42;;;;;;;1999.90;999.90;;;;;;;37.28;16.68;102402.84;5050751;28;20035;-66
2023/06/04 10:15:12;;;;;;;1999.90;999.90;;;;;;;37.42;17.33;102395.16;5049032;28;20025;-66
2023/06/04 10:17:38;;;;;;;1999.90;999.90;;;;;;;37.17;17.63;102392.16;5065634;28;20028;-66
2023/06/04 10:20:05;;;;;;;1999.90;999.90;;;;;;;35.82;18.23;102393.38;5069778;28;20028;-66
2023/06/04 10:22:32;;;;;;;1999.90;999.90;;;;;;;36.83;17.57;102392.78;5052299;28;20041;-66
2023/06/04 10:24:58;;;;;;;1999.90;999.90;;;;;;;38.51;16.24;102394.81;5048942;28;20119;-66
2023/06/04 10:27:24;;;;;;;1999.90;999.90;;;;;;;39.21;15.63;102390.09;5050964;28;20057;-66
2023/06/04 10:29:50;;;;;;;1999.90;999.90;;;;;;;36.26;17.56;102390.09;5054275;28;20107;-66
2023/06/04 10:32:17;;;;;;;1999.90;999.90;;;;;;;37.73;16.84;102384.69;5065404;28;20476;-66
2023/06/04 10:34:42;;;;;;;1999.90;999.90;;;;;;;38.06;16.32;102384.09;5048968;28;20526;-66
2023/06/04 10:37:20;;;;;;;1999.90;999.90;;;;;;;38.50;16.87;102393.06;5048454;28;20025;-66
2023/06/04 10:39:51;;;;;;;1999.90;999.90;;;;;;;39.09;16.69;102396.88;5051364;28;20426;-65
2023/06/04 10:42:18;;;;;;;1999.90;999.90;;;;;;;37.71;17.13;102396.78;5068496;28;20024;-66
2023/06/04 10:44:48;;;;;;;1999.90;999.90;;;;;;;38.75;15.85;102395.09;5068521;28;20056;-66